createdAt,value
2022-09-02T00:01:41.702Z,25.00
2022-09-02T00:04:14.075Z,25.10
2022-09-02T00:06:43.920Z,25.10
2022-09-02T00:09:15.265Z,25.10
2022-09-02T00:11:46.906Z,25.10
2022-09-02T00:14:19.920Z,25.10
2022-09-02T00:16:52.463Z,25.00
2022-09-02T00:19:24.323Z,25.00
2022-09-02T00:21:54.614Z,25.00
2022-09-02T00:24:25.183Z,25.00
2022-09-02T00:26:56.820Z,25.10
2022-09-02T00:29:26.324Z,25.10
2022-09-02T00:31:55.761Z,25.00
2022-09-02T00:34:24.999Z,25.00
2022-09-02T00:36:54.097Z,25.00
2022-09-02T00:39:23.412Z,25.00
2022-09-02T00:41:52.708Z,25.00
2022-09-02T00:44:24.555Z,25.00
2022-09-02T00:46:53.389Z,25.00
2022-09-02T00:49:26.804Z,25.00
2022-09-02T00:52:00.489Z,25.10
2022-09-02T00:54:33.242Z,25.20
2022-09-02T00:57:04.770Z,25.20
2022-09-02T00:59:45.129Z,25.20
2022-09-02T01:02:14.829Z,25.20
2022-09-02T01:04:46.860Z,25.20
2022-09-02T01:07:16.570Z,25.20
2022-09-02T01:09:45.505Z,25.20
2022-09-02T01:12:15.152Z,25.10
2022-09-02T01:14:46.664Z,25.10
2022-09-02T01:17:17.330Z,25.00
2022-09-02T01:19:50.483Z,25.00
2022-09-02T01:22:23.932Z,25.00
2022-09-02T01:24:53.345Z,25.00
2022-09-02T01:27:24.233Z,24.90
2022-09-02T01:29:55.841Z,24.90
2022-09-02T01:32:25.405Z,24.90
2022-09-02T01:34:54.276Z,24.90
2022-09-02T01:37:25.003Z,24.80
2022-09-02T01:39:54.913Z,24.80
2022-09-02T01:42:24.460Z,24.80
2022-09-02T01:44:54.946Z,24.80
2022-09-02T01:47:26.707Z,24.90
2022-09-02T01:49:56.233Z,24.90
2022-09-02T01:52:29.512Z,24.90
2022-09-02T01:54:58.977Z,24.90
2022-09-02T01:57:27.892Z,24.90
2022-09-02T01:59:56.906Z,24.90
2022-09-02T02:02:26.436Z,24.90
2022-09-02T02:04:56.070Z,24.90
2022-09-02T02:07:27.728Z,25.00
2022-09-02T02:09:56.769Z,24.90
2022-09-02T02:12:26.507Z,25.00
2022-09-02T02:14:57.050Z,25.00
2022-09-02T02:17:26.044Z,25.00
2022-09-02T02:19:54.964Z,25.10
2022-09-02T02:22:23.795Z,25.10
2022-09-02T02:24:54.183Z,25.10
2022-09-02T02:27:23.173Z,25.10
2022-09-02T02:29:53.817Z,25.00
2022-09-02T02:32:26.332Z,25.00
2022-09-02T02:34:56.494Z,25.00
2022-09-02T02:37:25.712Z,25.00
2022-09-02T02:39:57.660Z,25.00
2022-09-02T02:42:29.308Z,25.00
2022-09-02T02:44:58.634Z,24.90
2022-09-02T02:47:27.907Z,24.90
2022-09-02T02:49:56.925Z,24.90
2022-09-02T02:52:25.823Z,24.90
2022-09-02T02:54:56.830Z,24.90
2022-09-02T02:57:25.769Z,25.00
2022-09-02T02:59:54.717Z,25.00
2022-09-02T03:02:24.165Z,25.00
2022-09-02T03:04:54.470Z,25.00
2022-09-02T03:07:24.610Z,25.00
2022-09-02T03:09:54.109Z,25.00
2022-09-02T03:12:25.096Z,25.00
2022-09-02T03:14:54.602Z,25.00
2022-09-02T03:17:23.808Z,24.90
2022-09-02T03:19:52.690Z,25.00
2022-09-02T03:22:22.101Z,25.00
2022-09-02T03:24:51.296Z,25.00
2022-09-02T03:27:20.306Z,25.00
2022-09-02T03:29:50.868Z,24.90
2022-09-02T03:32:19.908Z,24.90
2022-09-02T03:34:49.861Z,24.90
2022-09-02T03:37:19.137Z,24.90
2022-09-02T03:39:48.669Z,24.80
2022-09-02T03:42:19.768Z,24.90
2022-09-02T03:44:53.264Z,24.80
2022-09-02T03:47:24.398Z,24.90
2022-09-02T03:50:13.470Z,24.90
2022-09-02T03:52:42.389Z,24.80
2022-09-02T03:55:12.680Z,24.90
2022-09-02T03:57:42.184Z,24.90
2022-09-02T04:00:15.731Z,24.90
2022-09-02T04:02:50.113Z,24.80
2022-09-02T04:05:22.573Z,24.80
2022-09-02T04:07:54.135Z,24.80
2022-09-02T04:10:23.580Z,24.80
2022-09-02T04:12:53.764Z,24.70
2022-09-02T04:15:25.416Z,24.80
2022-09-02T04:17:54.805Z,24.80
2022-09-02T04:20:23.813Z,24.80
2022-09-02T04:22:53.200Z,24.80
2022-09-02T04:25:27.584Z,24.80
2022-09-02T04:27:57.483Z,24.80
2022-09-02T04:30:28.082Z,24.80
2022-09-02T04:32:57.012Z,24.80
2022-09-02T04:35:26.048Z,24.80
2022-09-02T04:37:55.097Z,24.80
2022-09-02T04:40:25.043Z,24.80
2022-09-02T04:42:55.757Z,24.80
2022-09-02T04:45:29.911Z,24.90
2022-09-02T04:48:00.223Z,24.80
2022-09-02T04:50:29.168Z,24.80
2022-09-02T04:53:01.452Z,24.70
2022-09-02T04:55:33.153Z,24.80
2022-09-02T04:58:02.192Z,24.60
2022-09-02T05:00:32.498Z,24.50
2022-09-02T05:03:01.672Z,24.40
2022-09-02T05:05:32.605Z,24.40
2022-09-02T05:08:04.807Z,24.40
2022-09-02T05:10:34.153Z,24.30
2022-09-02T05:13:03.496Z,24.40
2022-09-02T05:15:33.877Z,24.50
2022-09-02T05:18:03.992Z,24.50
2022-09-02T05:20:34.468Z,24.50
2022-09-02T05:23:03.451Z,24.50
2022-09-02T05:25:32.457Z,24.50
2022-09-02T05:28:02.150Z,24.40
2022-09-02T05:30:31.993Z,24.40
2022-09-02T05:33:03.273Z,24.40
2022-09-02T05:35:34.413Z,24.30
2022-09-02T05:38:07.091Z,24.40
2022-09-02T05:40:38.249Z,24.40
2022-09-02T05:43:10.579Z,24.40
2022-09-02T05:45:41.000Z,24.50
2022-09-02T05:48:25.256Z,24.50
2022-09-02T05:50:54.902Z,24.50
2022-09-02T05:53:28.049Z,24.50
2022-09-02T05:55:57.448Z,24.40
2022-09-02T05:58:26.825Z,24.40
2022-09-02T06:00:56.540Z,24.40
2022-09-02T06:03:27.337Z,24.40
2022-09-02T06:05:57.411Z,24.40
2022-09-02T06:08:28.995Z,24.40
2022-09-02T06:10:57.956Z,24.40
2022-09-02T06:13:28.989Z,24.40
2022-09-02T06:15:59.247Z,24.40
2022-09-02T06:18:34.083Z,24.40
2022-09-02T06:21:05.533Z,24.60
2022-09-02T06:23:40.635Z,24.60
2022-09-02T06:26:13.599Z,24.70
2022-09-02T06:28:42.807Z,24.70
2022-09-02T06:31:15.329Z,24.80
2022-09-02T06:33:47.435Z,24.80
2022-09-02T06:36:20.318Z,24.90
2022-09-02T06:38:52.096Z,25.00
2022-09-02T06:41:24.644Z,25.10
2022-09-02T06:43:57.817Z,25.30
2022-09-02T06:46:30.009Z,25.30
2022-09-02T06:49:03.980Z,25.30
2022-09-02T06:51:35.117Z,25.40
2022-09-02T06:54:07.335Z,25.50
2022-09-02T06:56:39.911Z,25.50
2022-09-02T06:59:10.139Z,25.60
2022-09-02T07:01:51.339Z,25.60
2022-09-02T07:04:42.478Z,25.70
2022-09-02T07:07:16.167Z,25.80
2022-09-02T07:09:52.689Z,26.00
2022-09-02T07:12:22.086Z,26.10
2022-09-02T07:14:56.463Z,26.20
2022-09-02T07:17:39.420Z,26.20
2022-09-02T07:20:17.856Z,26.10
2022-09-02T07:25:28.733Z,26.40
2022-09-02T07:27:57.913Z,26.50
2022-09-02T07:30:27.907Z,26.60
2022-09-02T07:33:06.568Z,26.70
2022-09-02T07:35:38.797Z,26.80
2022-09-02T07:38:10.287Z,26.80
2022-09-02T07:40:41.328Z,26.90
2022-09-02T07:43:12.402Z,26.90
2022-09-02T07:45:44.049Z,26.90
2022-09-02T07:48:15.356Z,27.00
2022-09-02T07:50:47.569Z,27.00
2022-09-02T07:53:20.496Z,27.10
2022-09-02T07:55:50.775Z,27.00
2022-09-02T07:58:21.543Z,27.10
2022-09-02T08:00:53.040Z,27.20
2022-09-02T08:03:23.179Z,27.30
2022-09-02T08:05:57.705Z,27.40
2022-09-02T08:08:28.508Z,27.50
2022-09-02T08:10:58.174Z,27.60
2022-09-02T08:13:28.042Z,27.60
2022-09-02T08:15:57.585Z,27.60
2022-09-02T08:18:26.979Z,27.60
2022-09-02T08:20:57.854Z,27.70
2022-09-02T08:23:36.799Z,27.90
2022-09-02T08:26:07.260Z,28.00
2022-09-02T08:28:36.552Z,28.10
2022-09-02T08:31:09.088Z,28.30
2022-09-02T08:33:38.221Z,28.50
2022-09-02T08:36:12.017Z,28.40
2022-09-02T08:38:41.361Z,28.50
2022-09-02T08:41:23.270Z,28.50
2022-09-02T08:43:54.278Z,28.60
2022-09-02T08:46:26.617Z,28.70
2022-09-02T08:48:59.990Z,28.80
2022-09-02T08:51:37.360Z,28.90
2022-09-02T08:54:11.133Z,28.90
2022-09-02T08:56:41.811Z,28.90
2022-09-02T08:59:13.272Z,28.90
2022-09-02T09:01:49.595Z,29.30
2022-09-02T09:04:22.850Z,29.50
2022-09-02T09:07:12.703Z,29.40
2022-09-02T09:09:56.782Z,29.00
2022-09-02T09:12:34.629Z,29.30
2022-09-02T09:15:10.567Z,29.40
2022-09-02T09:17:46.489Z,29.30
2022-09-02T09:20:20.705Z,29.10
2022-09-02T09:22:53.023Z,29.10
2022-09-02T09:25:22.204Z,29.20
2022-09-02T09:27:51.079Z,29.00
2022-09-02T09:30:20.257Z,29.10
2022-09-02T09:32:54.915Z,29.20
2022-09-02T09:35:24.632Z,29.20
2022-09-02T09:37:56.276Z,29.40
2022-09-02T09:40:32.020Z,29.40
2022-09-02T09:43:14.552Z,29.40
2022-09-02T09:45:46.288Z,29.40
2022-09-02T09:48:27.788Z,29.70
2022-09-02T09:51:19.790Z,29.50
2022-09-02T09:53:50.152Z,29.00
2022-09-02T09:56:36.978Z,28.80
2022-09-02T09:59:10.610Z,28.80
2022-09-02T10:01:39.570Z,28.90
2022-09-02T10:04:42.238Z,28.80
2022-09-02T10:07:01.361Z,28.90
2022-09-02T10:09:36.397Z,29.30
2022-09-02T10:12:08.189Z,29.80
2022-09-02T10:14:43.174Z,29.80
2022-09-02T10:17:26.236Z,29.70
2022-09-02T10:20:04.895Z,29.30
2022-09-02T10:23:12.918Z,29.20
2022-09-02T10:25:55.163Z,28.90
2022-09-02T10:28:38.480Z,29.10
2022-09-02T10:31:13.358Z,28.90
2022-09-02T10:33:52.426Z,28.70
2022-09-02T10:36:31.232Z,28.50
2022-09-02T10:39:08.139Z,28.50
2022-09-02T10:44:29.787Z,28.70
2022-09-02T10:47:02.645Z,28.80
2022-09-02T10:49:52.300Z,29.30
2022-09-02T10:52:39.750Z,29.50
2022-09-02T10:55:17.269Z,29.40
2022-09-02T10:57:53.303Z,29.40
2022-09-02T11:00:24.730Z,29.70
2022-09-02T11:02:59.244Z,29.80
2022-09-02T11:05:33.670Z,29.60
2022-09-02T11:08:09.986Z,29.40
2022-09-02T11:10:43.363Z,29.30
2022-09-02T11:13:20.233Z,29.00
2022-09-02T11:15:53.603Z,28.90
2022-09-02T11:18:26.649Z,29.00
2022-09-02T11:21:04.865Z,28.80
2022-09-02T11:23:40.037Z,28.70
2022-09-02T11:26:15.065Z,28.90
2022-09-02T11:28:54.396Z,28.90
2022-09-02T11:31:29.196Z,29.00
2022-09-02T11:36:40.344Z,29.30
2022-09-02T11:39:21.724Z,29.30
2022-09-02T11:42:24.201Z,29.70
2022-09-02T11:45:19.457Z,29.70
2022-09-02T11:48:06.602Z,29.60
2022-09-02T11:51:02.912Z,29.40
2022-09-02T11:53:37.155Z,29.50
2022-09-02T11:56:12.494Z,29.80
2022-09-02T11:58:47.452Z,29.80
2022-09-02T12:01:35.550Z,29.40
2022-09-02T12:04:48.566Z,29.60
2022-09-02T12:07:32.842Z,29.50
2022-09-02T12:10:06.400Z,29.90
2022-09-02T12:13:08.405Z,29.80
2022-09-02T12:15:40.752Z,29.80
2022-09-02T12:18:31.219Z,30.10
2022-09-02T12:21:18.230Z,29.90
2022-09-02T12:24:11.038Z,29.60
2022-09-02T12:27:09.275Z,29.50
2022-09-02T12:29:39.772Z,29.80
2022-09-02T12:32:10.575Z,29.70
2022-09-02T12:34:57.995Z,29.60
2022-09-02T12:37:55.661Z,29.50
2022-09-02T12:40:31.362Z,30.00
2022-09-02T12:43:07.835Z,30.20
2022-09-02T12:45:45.753Z,30.30
2022-09-02T12:48:18.486Z,30.00
2022-09-02T12:50:58.101Z,30.00
2022-09-02T12:53:33.852Z,29.90
2022-09-02T12:56:06.525Z,30.10
2022-09-02T12:58:40.694Z,30.40
2022-09-02T13:01:19.700Z,30.10
2022-09-02T13:04:18.526Z,30.20
2022-09-02T13:07:20.037Z,30.40
2022-09-02T13:10:28.603Z,30.40
2022-09-02T13:13:35.329Z,30.20
2022-09-02T13:16:19.018Z,30.10
2022-09-02T13:19:21.390Z,30.10
2022-09-02T13:22:06.436Z,30.40
2022-09-02T13:25:02.812Z,30.50
2022-09-02T13:28:15.286Z,31.00
2022-09-02T13:31:06.116Z,31.20
2022-09-02T13:33:38.361Z,30.60
2022-09-02T13:36:11.083Z,30.50
2022-09-02T13:38:40.697Z,30.80
2022-09-02T13:41:09.794Z,30.60
2022-09-02T13:43:39.938Z,30.60
2022-09-02T13:46:10.634Z,30.60
2022-09-02T13:48:41.723Z,30.60
2022-09-02T13:51:15.085Z,30.90
2022-09-02T13:56:37.465Z,30.80
2022-09-02T13:59:08.038Z,30.80
2022-09-02T14:01:40.137Z,31.00
2022-09-02T14:04:15.826Z,30.80
2022-09-02T14:06:48.871Z,30.80
2022-09-02T14:09:23.762Z,30.60
2022-09-02T14:11:54.037Z,30.20
2022-09-02T14:14:26.760Z,30.00
2022-09-02T14:17:18.854Z,30.10
2022-09-02T14:19:48.860Z,30.10
2022-09-02T14:22:28.497Z,30.00
2022-09-02T14:24:58.359Z,29.80
2022-09-02T14:27:27.597Z,29.90
2022-09-02T14:29:59.519Z,29.70
2022-09-02T14:32:29.810Z,29.50
2022-09-02T14:55:55.389Z,28.70
2022-09-02T14:58:27.626Z,28.60
2022-09-02T15:01:00.201Z,28.60
2022-09-02T15:03:30.592Z,28.60
2022-09-02T15:05:59.698Z,28.70
2022-09-02T15:08:28.610Z,28.70
2022-09-02T15:11:01.980Z,28.60
2022-09-02T15:13:34.108Z,28.60
2022-09-02T15:16:04.169Z,28.50
2022-09-02T15:18:33.274Z,28.60
2022-09-02T15:21:03.391Z,28.60
2022-09-02T15:23:34.762Z,28.80
2022-09-02T15:26:06.927Z,28.90
2022-09-02T15:28:36.104Z,29.20
2022-09-02T15:31:05.038Z,29.30
2022-09-02T15:33:34.236Z,29.30
2022-09-02T15:36:10.538Z,29.20
2022-09-02T15:38:41.328Z,29.20
2022-09-02T15:41:17.425Z,29.00
2022-09-02T15:43:48.375Z,29.10
2022-09-02T15:46:24.250Z,29.20
2022-09-02T15:48:56.764Z,29.30
2022-09-02T15:51:27.972Z,29.60
2022-09-02T15:53:57.555Z,29.30
2022-09-02T15:56:29.749Z,29.30
2022-09-02T15:59:01.977Z,29.20
2022-09-02T16:01:32.323Z,29.20
2022-09-02T16:04:03.228Z,29.40
2022-09-02T16:06:33.554Z,29.30
2022-09-02T16:09:02.704Z,29.30
2022-09-02T16:11:33.496Z,29.10
2022-09-02T16:14:02.583Z,29.20
2022-09-02T16:16:32.499Z,29.20
2022-09-02T16:19:02.149Z,29.10
2022-09-02T16:21:31.502Z,29.10
2022-09-02T16:24:00.597Z,29.00
2022-09-02T16:26:31.326Z,28.90
2022-09-02T16:29:03.794Z,29.00
2022-09-02T16:31:35.309Z,29.10
2022-09-02T16:34:06.693Z,29.00
2022-09-02T16:36:38.253Z,29.10
2022-09-02T16:39:08.138Z,28.90
2022-09-02T16:41:38.591Z,29.00
2022-09-02T16:44:11.391Z,29.10
2022-09-02T17:22:53.712Z,28.20
2022-09-02T17:25:23.256Z,28.10
2022-09-02T17:27:52.226Z,28.10
2022-09-02T17:30:24.010Z,27.90
2022-09-02T17:32:56.297Z,28.00
2022-09-02T17:35:26.081Z,27.30
2022-09-02T17:37:56.945Z,27.00
2022-09-02T17:40:43.688Z,26.90
2022-09-02T17:43:12.688Z,26.90
2022-09-02T17:45:41.813Z,26.80
2022-09-02T17:48:34.706Z,26.40
2022-09-02T17:51:01.096Z,26.30
2022-09-02T17:53:33.035Z,26.20
2022-09-02T17:56:21.942Z,26.10
2022-09-02T17:59:01.134Z,26.10
2022-09-02T18:01:32.894Z,25.80
2022-09-02T18:04:11.357Z,25.60
2022-09-02T18:06:45.521Z,25.70
2022-09-02T18:09:20.233Z,25.60
2022-09-02T18:11:54.974Z,25.60
2022-09-02T18:14:36.032Z,25.40
2022-09-02T18:17:18.248Z,25.30
2022-09-02T18:19:58.062Z,25.30
2022-09-02T18:22:54.315Z,25.30
2022-09-02T18:25:37.554Z,25.40
2022-09-02T18:28:15.866Z,25.40
2022-09-02T18:30:50.688Z,25.30
2022-09-02T18:34:01.132Z,25.20
2022-09-02T18:36:39.334Z,25.20
2022-09-02T18:39:34.805Z,25.30
2022-09-02T18:42:17.792Z,25.20
2022-09-02T18:44:59.838Z,25.10
2022-09-02T18:47:33.587Z,25.20
2022-09-02T18:50:06.897Z,25.30
2022-09-02T18:52:38.546Z,25.20
2022-09-02T18:55:13.758Z,25.20
2022-09-02T18:57:51.178Z,25.30
2022-09-02T19:00:22.409Z,25.30
2022-09-02T19:02:58.272Z,25.50
2022-09-02T19:05:29.441Z,25.50
2022-09-02T19:08:20.597Z,25.60
2022-09-02T19:10:50.118Z,25.50
2022-09-02T19:13:21.138Z,25.60
2022-09-02T19:15:50.492Z,25.60
2022-09-02T19:18:25.916Z,25.60
2022-09-02T19:20:56.236Z,25.60
2022-09-02T19:23:26.465Z,25.60
2022-09-02T19:25:55.666Z,25.50
2022-09-02T19:28:28.097Z,25.40
2022-09-02T19:31:02.717Z,25.20
2022-09-02T19:33:34.843Z,25.00
2022-09-02T19:36:04.190Z,24.80
2022-09-02T19:38:33.702Z,24.70
2022-09-02T19:41:02.548Z,24.50
2022-09-02T19:43:32.903Z,24.30
2022-09-02T19:46:02.496Z,24.30
2022-09-02T19:48:31.933Z,24.30
2022-09-02T19:51:01.514Z,24.30
2022-09-02T19:53:32.045Z,24.40
2022-09-02T19:56:01.509Z,24.50
2022-09-02T19:58:30.636Z,24.40
2022-09-02T20:01:01.398Z,24.40
2022-09-02T20:03:30.516Z,24.40
2022-09-02T20:05:59.969Z,24.50
2022-09-02T20:08:31.325Z,24.60
2022-09-02T20:11:02.567Z,24.60
2022-09-02T20:13:40.160Z,24.60
2022-09-02T20:16:20.561Z,24.70
2022-09-02T20:18:50.198Z,24.80
2022-09-02T20:21:23.555Z,24.80
2022-09-02T20:23:54.042Z,24.90
2022-09-02T20:26:35.231Z,24.90
2022-09-02T20:29:19.225Z,24.90
2022-09-02T20:32:03.791Z,24.90
2022-09-02T20:34:46.861Z,25.00
2022-09-02T20:37:27.555Z,25.00
2022-09-02T20:40:12.294Z,25.00
2022-09-02T20:43:08.099Z,25.00
2022-09-02T20:45:40.468Z,25.10
2022-09-02T20:48:27.649Z,25.10
2022-09-02T20:51:05.181Z,25.10
2022-09-02T20:54:01.081Z,25.10
2022-09-02T20:56:39.361Z,25.10
2022-09-02T20:59:17.376Z,25.00
2022-09-02T21:01:48.621Z,25.10
2022-09-02T21:04:31.935Z,25.10
2022-09-02T21:07:06.257Z,25.10
2022-09-02T21:09:42.802Z,25.20
2022-09-02T21:12:32.414Z,25.20
2022-09-02T21:15:08.422Z,25.20
2022-09-02T21:17:47.787Z,25.30
2022-09-02T21:20:25.591Z,25.40
2022-09-02T21:22:59.361Z,25.30
2022-09-02T21:25:36.169Z,25.30
2022-09-02T21:28:09.284Z,25.30
2022-09-02T21:30:42.191Z,25.30
2022-09-02T21:33:13.361Z,25.30
2022-09-02T21:35:47.298Z,25.20
2022-09-02T21:38:20.844Z,25.20
2022-09-02T21:41:07.108Z,25.20
2022-09-02T21:43:51.749Z,25.10
2022-09-02T21:46:32.557Z,25.10
2022-09-02T21:49:07.631Z,25.10
2022-09-02T21:51:47.099Z,25.10
2022-09-02T21:54:33.968Z,25.20
2022-09-02T21:57:16.623Z,25.30
2022-09-02T21:59:59.185Z,25.30
2022-09-02T22:02:40.374Z,25.40
2022-09-02T22:05:18.416Z,25.40
2022-09-02T22:07:55.649Z,25.50
2022-09-02T22:10:31.965Z,25.50
2022-09-02T22:13:03.683Z,25.50
2022-09-02T22:15:56.702Z,25.50
2022-09-02T22:18:39.441Z,25.50
2022-09-02T22:21:18.473Z,25.40
2022-09-02T22:23:49.598Z,25.30
2022-09-02T22:26:29.458Z,25.20
2022-09-02T22:29:04.104Z,25.20
2022-09-02T22:31:39.352Z,25.20
2022-09-02T22:34:10.757Z,25.20
2022-09-02T22:36:52.308Z,25.10
2022-09-02T22:39:32.367Z,25.00
2022-09-02T22:42:11.508Z,24.80
2022-09-02T22:45:02.904Z,24.80
2022-09-02T22:47:51.726Z,24.80
2022-09-02T22:50:42.771Z,24.80
2022-09-02T22:53:13.150Z,24.80
2022-09-02T22:55:58.917Z,24.90
2022-09-02T22:59:09.804Z,24.90
2022-09-02T23:01:51.819Z,25.00
2022-09-02T23:04:40.875Z,24.90
2022-09-02T23:07:13.486Z,25.00
2022-09-02T23:09:43.862Z,25.00
2022-09-02T23:12:25.240Z,25.00
2022-09-02T23:15:04.436Z,25.10
2022-09-02T23:17:41.661Z,25.10
2022-09-02T23:20:21.364Z,25.00
2022-09-02T23:23:05.515Z,25.00
2022-09-02T23:25:57.091Z,24.80
2022-09-02T23:28:34.252Z,24.80
2022-09-02T23:31:12.755Z,24.80
2022-09-02T23:33:55.231Z,24.80
2022-09-02T23:36:40.276Z,24.80
2022-09-02T23:39:31.793Z,24.90
2022-09-02T23:42:02.611Z,24.80
2022-09-02T23:44:33.243Z,24.80
2022-09-02T23:47:16.615Z,25.00
2022-09-02T23:49:57.765Z,25.00
2022-09-02T23:52:32.866Z,24.90
2022-09-02T23:55:10.110Z,24.80
2022-09-02T23:58:05.258Z,24.90
